Pateros, Washington
Current Conditions -  °F | °C
As of 7:22 PM on Wednesday 22 Oct 2014 (Local Time) from KOMK Reporting Station
Moderate Rain Moderate Rain  
Wind Chill: 10°   Ceiling: 1900
Heat Index: 10°   Visibility: 5mi
Dew Point:   Wind: 6mph
Humidity: 96%   Direction: 230°SW
Pressure: 29.66"   Gusts: NA
Location:  48.05°N, 119.9°W
Report Text: KOMK 230222Z AUTO 23005KT 5SM RA BR SCT009 OVC019 10/09 A2966 RMK AO2 P0005 T01000094
Loading
Personal Weather Stations






























Interactive Weather Map
Tropical Storm Tracking
New forecast layout! Learn more

10-Day Weather Forecast

Advertisements
Track Severe Weather on mobile